DWI2101 KMIA-MDSD
Flight info
| Callsign | DWI2101 |
|---|---|
| Flight time | 1h 48m |
| Altitude | 39000 |
| Route | KLADA2 BITAC Y396 RUMFO Y441 JUELE UW38 PTA UT20 KODIX KODIX2G |
| Aircraft | B38M/M-SDE1FGHILORVWXY/HB1 |
Departure
| Time | 2026-05-04 17:41 |
|---|---|
| Airport | Miami International Airport (KMIA) |
Arrival
| Time | 2026-05-04 19:29 |
|---|---|
| Airport | Las Américas International Airport (MDSD) |
| Time | Latitude | Longitude | Altitude | Speed | Heading |
|---|---|---|---|---|---|
| 2026-05-04 17:03 | 25.79492 | -80.28329 | 23 ft | 0 kts | 289° |
| 2026-05-04 17:27 | 25.79492 | -80.28328 | 23 ft | 2 kts | 289° |
| 2026-05-04 17:28 | 25.79475 | -80.28273 | 24 ft | 4 kts | 288° |
| 2026-05-04 17:29 | 25.79470 | -80.28235 | 25 ft | 0 kts | 263° |
| 2026-05-04 17:34 | 25.79420 | -80.28264 | 22 ft | 9 kts | 174° |
| 2026-05-04 17:34 | 25.79352 | -80.28266 | 22 ft | 9 kts | 203° |
| 2026-05-04 17:35 | 25.79332 | -80.28367 | 22 ft | 12 kts | 264° |
| 2026-05-04 17:35 | 25.79319 | -80.28564 | 20 ft | 10 kts | 253° |
| 2026-05-04 17:35 | 25.79286 | -80.28596 | 19 ft | 6 kts | 201° |
| 2026-05-04 17:36 | 25.79252 | -80.28630 | 19 ft | 7 kts | 251° |
| 2026-05-04 17:36 | 25.79266 | -80.28684 | 18 ft | 9 kts | 298° |
| 2026-05-04 17:36 | 25.79312 | -80.28774 | 15 ft | 17 kts | 301° |
| 2026-05-04 17:36 | 25.79362 | -80.28870 | 17 ft | 12 kts | 298° |
| 2026-05-04 17:37 | 25.79403 | -80.28954 | 18 ft | 13 kts | 299° |
| 2026-05-04 17:37 | 25.79452 | -80.29048 | 18 ft | 15 kts | 301° |
| 2026-05-04 17:37 | 25.79507 | -80.29154 | 20 ft | 16 kts | 300° |
| 2026-05-04 17:37 | 25.79563 | -80.29264 | 21 ft | 17 kts | 299° |
| 2026-05-04 17:38 | 25.79629 | -80.29393 | 19 ft | 19 kts | 300° |
| 2026-05-04 17:38 | 25.79696 | -80.29523 | 19 ft | 19 kts | 300° |
| 2026-05-04 17:38 | 25.79752 | -80.29636 | 16 ft | 18 kts | 299° |
| 2026-05-04 17:38 | 25.79811 | -80.29751 | 14 ft | 15 kts | 299° |
| 2026-05-04 17:39 | 25.79913 | -80.29950 | 15 ft | 15 kts | 300° |
| 2026-05-04 17:39 | 25.79968 | -80.30060 | 15 ft | 17 kts | 299° |
| 2026-05-04 17:39 | 25.80022 | -80.30124 | 17 ft | 11 kts | 345° |
| 2026-05-04 17:40 | 25.80074 | -80.30091 | 17 ft | 9 kts | 88° |
| 2026-05-04 17:40 | 25.80076 | -80.30026 | 15 ft | 11 kts | 88° |
| 2026-05-04 17:40 | 25.80089 | -80.29708 | 16 ft | 81 kts | 87° |
| 2026-05-04 17:40 | 25.80124 | -80.28839 | 25 ft | 145 kts | 88° |
| 2026-05-04 17:41 | 25.80189 | -80.27536 | 294 ft | 183 kts | 85° |
| 2026-05-04 17:41 | 25.80241 | -80.26085 | 1043 ft | 198 kts | 88° |
| 2026-05-04 17:41 | 25.80051 | -80.24444 | 1667 ft | 228 kts | 102° |
| 2026-05-04 17:41 | 25.79339 | -80.22740 | 2099 ft | 260 kts | 119° |
| 2026-05-04 17:42 | 25.78360 | -80.20996 | 2993 ft | 272 kts | 120° |
| 2026-05-04 17:42 | 25.77363 | -80.19155 | 3846 ft | 284 kts | 119° |
| 2026-05-04 17:42 | 25.76421 | -80.17221 | 4870 ft | 286 kts | 118° |
| 2026-05-04 17:42 | 25.75483 | -80.15246 | 5571 ft | 296 kts | 119° |
| 2026-05-04 17:43 | 25.74525 | -80.13227 | 6714 ft | 291 kts | 119° |
| 2026-05-04 17:43 | 25.73574 | -80.11247 | 7786 ft | 294 kts | 120° |
| 2026-05-04 17:43 | 25.72774 | -80.09144 | 8553 ft | 306 kts | 111° |
| 2026-05-04 17:43 | 25.72062 | -80.06902 | 9505 ft | 310 kts | 111° |
| 2026-05-04 17:44 | 25.71318 | -80.04610 | 10269 ft | 320 kts | 112° |
| 2026-05-04 17:44 | 25.70538 | -80.02242 | 10836 ft | 336 kts | 112° |
| 2026-05-04 17:44 | 25.69710 | -79.99752 | 11345 ft | 351 kts | 112° |
| 2026-05-04 17:44 | 25.68844 | -79.97158 | 11954 ft | 362 kts | 112° |
| 2026-05-04 17:45 | 25.67972 | -79.94552 | 12807 ft | 363 kts | 112° |
| 2026-05-04 17:45 | 25.67084 | -79.91898 | 13531 ft | 370 kts | 113° |
| 2026-05-04 17:45 | 25.66182 | -79.89210 | 14261 ft | 374 kts | 113° |
| 2026-05-04 17:45 | 25.65269 | -79.86488 | 14913 ft | 378 kts | 113° |
| 2026-05-04 17:46 | 25.64347 | -79.83742 | 15582 ft | 382 kts | 113° |
| 2026-05-04 17:46 | 25.63416 | -79.80970 | 16246 ft | 386 kts | 113° |
| 2026-05-04 17:46 | 25.62471 | -79.78160 | 16881 ft | 389 kts | 113° |
| 2026-05-04 17:46 | 25.61533 | -79.75371 | 17495 ft | 393 kts | 113° |
| 2026-05-04 17:47 | 25.60572 | -79.72516 | 18106 ft | 397 kts | 113° |
| 2026-05-04 17:47 | 25.59575 | -79.69644 | 18650 ft | 400 kts | 115° |
| 2026-05-04 17:47 | 25.58523 | -79.66784 | 19156 ft | 403 kts | 115° |
| 2026-05-04 17:47 | 25.57461 | -79.63883 | 19686 ft | 406 kts | 115° |
| 2026-05-04 17:48 | 25.56402 | -79.60984 | 20175 ft | 410 kts | 115° |
| 2026-05-04 17:48 | 25.55329 | -79.58043 | 20683 ft | 413 kts | 115° |
| 2026-05-04 17:48 | 25.54246 | -79.55079 | 21184 ft | 416 kts | 115° |
| 2026-05-04 17:48 | 25.53154 | -79.52093 | 21692 ft | 420 kts | 115° |
| 2026-05-04 17:49 | 25.52053 | -79.49084 | 22178 ft | 423 kts | 115° |
| 2026-05-04 17:49 | 25.50942 | -79.46049 | 22682 ft | 426 kts | 115° |
| 2026-05-04 17:49 | 25.49825 | -79.43000 | 23174 ft | 430 kts | 115° |
| 2026-05-04 17:49 | 25.48696 | -79.39923 | 23647 ft | 433 kts | 115° |
| 2026-05-04 17:50 | 25.47557 | -79.36819 | 24063 ft | 436 kts | 115° |
| 2026-05-04 17:50 | 25.46409 | -79.33692 | 24472 ft | 440 kts | 115° |
| 2026-05-04 17:50 | 25.45268 | -79.30590 | 24885 ft | 443 kts | 115° |
| 2026-05-04 17:50 | 25.44101 | -79.27413 | 25289 ft | 446 kts | 115° |
| 2026-05-04 17:51 | 25.42924 | -79.24220 | 25684 ft | 450 kts | 115° |
| 2026-05-04 17:51 | 25.41737 | -79.20996 | 26074 ft | 453 kts | 115° |
| 2026-05-04 17:51 | 25.40544 | -79.17760 | 26460 ft | 456 kts | 115° |
| 2026-05-04 17:51 | 25.39340 | -79.14498 | 26837 ft | 459 kts | 115° |
| 2026-05-04 17:52 | 25.38124 | -79.11205 | 27209 ft | 462 kts | 115° |
| 2026-05-04 17:52 | 25.36904 | -79.07902 | 27582 ft | 465 kts | 115° |
| 2026-05-04 17:52 | 25.35691 | -79.04625 | 27945 ft | 468 kts | 115° |
| 2026-05-04 17:52 | 25.34446 | -79.01260 | 28309 ft | 472 kts | 115° |
| 2026-05-04 17:53 | 25.33204 | -78.97906 | 28654 ft | 475 kts | 115° |
| 2026-05-04 17:53 | 25.31945 | -78.94513 | 29017 ft | 478 kts | 115° |
| 2026-05-04 17:53 | 25.30680 | -78.91102 | 29376 ft | 480 kts | 115° |
| 2026-05-04 17:53 | 25.29406 | -78.87672 | 29703 ft | 484 kts | 115° |
| 2026-05-04 17:54 | 25.28120 | -78.84213 | 30050 ft | 487 kts | 115° |
| 2026-05-04 17:54 | 25.26832 | -78.80751 | 30352 ft | 489 kts | 115° |
| 2026-05-04 17:54 | 25.25532 | -78.77260 | 30675 ft | 491 kts | 115° |
| 2026-05-04 17:54 | 25.24230 | -78.73766 | 30979 ft | 493 kts | 115° |
| 2026-05-04 17:55 | 25.22920 | -78.70254 | 31286 ft | 495 kts | 115° |
| 2026-05-04 17:55 | 25.21622 | -78.66775 | 31582 ft | 497 kts | 116° |
| 2026-05-04 17:55 | 25.20301 | -78.63238 | 31883 ft | 499 kts | 116° |
| 2026-05-04 17:55 | 25.18974 | -78.59687 | 32187 ft | 501 kts | 116° |
| 2026-05-04 17:56 | 25.17568 | -78.56166 | 32465 ft | 502 kts | 118° |
| 2026-05-04 17:56 | 25.16111 | -78.52646 | 32752 ft | 504 kts | 118° |
| 2026-05-04 17:56 | 25.14663 | -78.49116 | 33044 ft | 506 kts | 118° |
| 2026-05-04 17:56 | 25.13210 | -78.45569 | 33342 ft | 508 kts | 118° |
| 2026-05-04 17:57 | 25.11756 | -78.42018 | 33618 ft | 510 kts | 118° |
| 2026-05-04 17:57 | 25.10291 | -78.38443 | 33966 ft | 510 kts | 118° |
| 2026-05-04 17:57 | 25.08832 | -78.34888 | 34314 ft | 509 kts | 118° |
| 2026-05-04 17:57 | 25.07369 | -78.31324 | 34599 ft | 510 kts | 119° |
| 2026-05-04 17:58 | 25.05903 | -78.27757 | 34862 ft | 510 kts | 119° |
| 2026-05-04 17:58 | 25.04436 | -78.24189 | 35126 ft | 511 kts | 119° |
| 2026-05-04 17:58 | 25.02968 | -78.20624 | 35369 ft | 512 kts | 119° |
| 2026-05-04 17:58 | 25.01508 | -78.17078 | 35621 ft | 513 kts | 119° |
| 2026-05-04 17:59 | 25.00011 | -78.13447 | 35861 ft | 513 kts | 120° |
| 2026-05-04 17:59 | 24.98553 | -78.09912 | 36104 ft | 514 kts | 120° |
| 2026-05-04 17:59 | 24.95588 | -78.02735 | 36571 ft | 515 kts | 120° |
| 2026-05-04 18:00 | 24.94106 | -77.99150 | 36802 ft | 516 kts | 120° |
| 2026-05-04 18:00 | 24.92618 | -77.95557 | 37022 ft | 516 kts | 120° |
| 2026-05-04 18:00 | 24.91127 | -77.91958 | 37240 ft | 517 kts | 120° |
| 2026-05-04 18:00 | 24.89630 | -77.88348 | 37445 ft | 517 kts | 120° |
| 2026-05-04 18:01 | 24.88131 | -77.84736 | 37640 ft | 518 kts | 121° |
| 2026-05-04 18:01 | 24.86630 | -77.81122 | 37842 ft | 518 kts | 121° |
| 2026-05-04 18:01 | 24.85132 | -77.77518 | 38042 ft | 519 kts | 121° |
| 2026-05-04 18:02 | 24.82125 | -77.70290 | 38400 ft | 520 kts | 121° |
| 2026-05-04 18:02 | 24.80634 | -77.66712 | 38576 ft | 520 kts | 121° |
| 2026-05-04 18:02 | 24.79125 | -77.63094 | 38729 ft | 520 kts | 121° |
| 2026-05-04 18:02 | 24.77616 | -77.59476 | 38866 ft | 521 kts | 121° |
| 2026-05-04 18:03 | 24.76099 | -77.55843 | 38993 ft | 521 kts | 121° |
| 2026-05-04 18:03 | 24.74337 | -77.52423 | 39001 ft | 506 kts | 135° |
| 2026-05-04 18:03 | 24.70179 | -77.46189 | 39006 ft | 506 kts | 134° |
| 2026-05-04 18:04 | 24.66018 | -77.39921 | 39009 ft | 506 kts | 134° |
| 2026-05-04 18:05 | 24.60476 | -77.31603 | 39015 ft | 506 kts | 134° |
| 2026-05-04 18:05 | 24.56305 | -77.25352 | 39015 ft | 506 kts | 134° |
| 2026-05-04 18:06 | 24.50055 | -77.16001 | 39012 ft | 506 kts | 134° |
| 2026-05-04 18:06 | 24.45918 | -77.09820 | 39010 ft | 505 kts | 134° |
| 2026-05-04 18:07 | 24.41755 | -77.03609 | 39013 ft | 505 kts | 134° |
| 2026-05-04 18:07 | 24.37584 | -76.97393 | 39016 ft | 505 kts | 134° |
| 2026-05-04 18:08 | 24.33422 | -76.91201 | 39016 ft | 505 kts | 134° |
| 2026-05-04 18:08 | 24.29246 | -76.84992 | 39015 ft | 505 kts | 134° |
| 2026-05-04 18:09 | 24.20882 | -76.72586 | 39016 ft | 506 kts | 134° |
| 2026-05-04 18:10 | 24.16712 | -76.66411 | 39015 ft | 506 kts | 134° |
| 2026-05-04 18:10 | 24.12531 | -76.60228 | 39020 ft | 506 kts | 134° |
| 2026-05-04 18:11 | 24.08322 | -76.54011 | 39016 ft | 507 kts | 134° |
| 2026-05-04 18:11 | 24.04117 | -76.47807 | 39017 ft | 507 kts | 134° |
| 2026-05-04 18:12 | 23.99932 | -76.41642 | 39016 ft | 508 kts | 134° |
| 2026-05-04 18:12 | 23.95712 | -76.35433 | 39014 ft | 508 kts | 133° |
| 2026-05-04 18:13 | 23.91485 | -76.29221 | 39016 ft | 509 kts | 133° |
| 2026-05-04 18:14 | 23.85144 | -76.19917 | 39015 ft | 510 kts | 133° |
| 2026-05-04 18:14 | 23.80925 | -76.13735 | 39014 ft | 510 kts | 133° |
| 2026-05-04 18:15 | 23.72439 | -76.01325 | 39017 ft | 511 kts | 133° |
| 2026-05-04 18:16 | 23.68183 | -75.95112 | 39015 ft | 511 kts | 133° |
| 2026-05-04 18:16 | 23.63913 | -75.88888 | 39017 ft | 510 kts | 133° |
| 2026-05-04 18:17 | 23.57532 | -75.79599 | 39019 ft | 510 kts | 133° |
| 2026-05-04 18:18 | 23.51166 | -75.70348 | 39015 ft | 511 kts | 133° |
| 2026-05-04 18:18 | 23.46898 | -75.64158 | 39010 ft | 511 kts | 133° |
| 2026-05-04 18:19 | 23.40495 | -75.54882 | 39012 ft | 511 kts | 133° |
| 2026-05-04 18:19 | 23.36227 | -75.48709 | 39013 ft | 511 kts | 133° |
| 2026-05-04 18:20 | 23.31964 | -75.42551 | 39014 ft | 510 kts | 133° |
| 2026-05-04 18:20 | 23.27687 | -75.36379 | 39016 ft | 511 kts | 133° |
| 2026-05-04 18:21 | 23.23403 | -75.30206 | 39016 ft | 510 kts | 133° |
| 2026-05-04 18:21 | 23.19120 | -75.24039 | 39015 ft | 511 kts | 133° |
| 2026-05-04 18:22 | 23.14840 | -75.17883 | 39016 ft | 511 kts | 133° |
| 2026-05-04 18:22 | 23.10576 | -75.11758 | 39032 ft | 510 kts | 133° |
| 2026-05-04 18:23 | 23.06452 | -75.05456 | 39022 ft | 512 kts | 131° |
| 2026-05-04 18:23 | 23.02357 | -74.99130 | 39020 ft | 512 kts | 131° |
| 2026-05-04 18:24 | 22.98257 | -74.92815 | 39020 ft | 512 kts | 131° |
| 2026-05-04 18:24 | 22.94145 | -74.86490 | 39019 ft | 512 kts | 131° |
| 2026-05-04 18:25 | 22.90058 | -74.80211 | 39015 ft | 512 kts | 131° |
| 2026-05-04 18:25 | 22.85952 | -74.73911 | 39015 ft | 511 kts | 131° |
| 2026-05-04 18:26 | 22.81838 | -74.67605 | 39016 ft | 511 kts | 131° |
| 2026-05-04 18:26 | 22.77729 | -74.61314 | 39017 ft | 511 kts | 131° |
| 2026-05-04 18:27 | 22.73609 | -74.55016 | 39016 ft | 511 kts | 131° |
| 2026-05-04 18:27 | 22.69494 | -74.48731 | 39016 ft | 511 kts | 131° |
| 2026-05-04 18:28 | 22.65405 | -74.42494 | 39019 ft | 511 kts | 131° |
| 2026-05-04 18:28 | 22.61284 | -74.36216 | 39016 ft | 511 kts | 131° |
| 2026-05-04 18:29 | 22.57169 | -74.29953 | 39017 ft | 510 kts | 131° |
| 2026-05-04 18:29 | 22.53049 | -74.23691 | 39016 ft | 510 kts | 131° |
| 2026-05-04 18:30 | 22.46895 | -74.14352 | 39017 ft | 509 kts | 131° |
| 2026-05-04 18:31 | 22.42776 | -74.08110 | 39017 ft | 509 kts | 131° |
| 2026-05-04 18:31 | 22.38654 | -74.01871 | 39015 ft | 509 kts | 131° |
| 2026-05-04 18:32 | 22.34532 | -73.95639 | 39016 ft | 509 kts | 131° |
| 2026-05-04 18:32 | 22.30417 | -73.89424 | 39017 ft | 508 kts | 131° |
| 2026-05-04 18:33 | 22.26334 | -73.83265 | 39015 ft | 508 kts | 131° |
| 2026-05-04 18:33 | 22.22203 | -73.77042 | 39012 ft | 508 kts | 131° |
| 2026-05-04 18:34 | 22.18087 | -73.70849 | 39015 ft | 507 kts | 131° |
| 2026-05-04 18:34 | 22.14005 | -73.64712 | 39012 ft | 507 kts | 131° |
| 2026-05-04 18:35 | 22.09961 | -73.58641 | 39012 ft | 506 kts | 131° |
| 2026-05-04 18:35 | 22.05841 | -73.52461 | 39006 ft | 506 kts | 130° |
| 2026-05-04 18:36 | 22.01731 | -73.46304 | 39015 ft | 505 kts | 130° |
| 2026-05-04 18:36 | 21.97644 | -73.40190 | 39010 ft | 505 kts | 130° |
| 2026-05-04 18:37 | 21.93521 | -73.34028 | 39008 ft | 505 kts | 130° |
| 2026-05-04 18:37 | 21.89405 | -73.27882 | 39011 ft | 505 kts | 130° |
| 2026-05-04 18:38 | 21.85314 | -73.21781 | 39012 ft | 505 kts | 130° |
| 2026-05-04 18:38 | 21.81204 | -73.15659 | 39010 ft | 505 kts | 130° |
| 2026-05-04 18:39 | 21.77100 | -73.09553 | 39007 ft | 504 kts | 130° |
| 2026-05-04 18:39 | 21.72980 | -73.03430 | 39009 ft | 504 kts | 130° |
| 2026-05-04 18:40 | 21.68857 | -72.97310 | 39006 ft | 504 kts | 130° |
| 2026-05-04 18:40 | 21.64762 | -72.91237 | 39008 ft | 504 kts | 130° |
| 2026-05-04 18:41 | 21.60643 | -72.85136 | 39004 ft | 504 kts | 130° |
| 2026-05-04 18:41 | 21.56523 | -72.79039 | 39009 ft | 504 kts | 130° |
| 2026-05-04 18:42 | 21.52391 | -72.72932 | 39010 ft | 503 kts | 130° |
| 2026-05-04 18:42 | 21.48274 | -72.66853 | 39011 ft | 503 kts | 130° |
| 2026-05-04 18:43 | 21.44180 | -72.60817 | 39007 ft | 502 kts | 130° |
| 2026-05-04 18:43 | 21.40062 | -72.54751 | 39009 ft | 502 kts | 130° |
| 2026-05-04 18:44 | 21.35943 | -72.48689 | 39006 ft | 502 kts | 130° |
| 2026-05-04 18:44 | 21.31850 | -72.42672 | 39005 ft | 501 kts | 130° |
| 2026-05-04 18:45 | 21.27729 | -72.36621 | 39004 ft | 501 kts | 130° |
| 2026-05-04 18:45 | 21.23617 | -72.30590 | 39005 ft | 501 kts | 130° |
| 2026-05-04 18:46 | 21.19500 | -72.24558 | 39006 ft | 501 kts | 130° |
| 2026-05-04 18:46 | 21.15391 | -72.18544 | 39004 ft | 500 kts | 130° |
| 2026-05-04 18:47 | 21.11299 | -72.12562 | 39003 ft | 500 kts | 130° |
| 2026-05-04 18:47 | 21.07163 | -72.06521 | 39002 ft | 500 kts | 130° |
| 2026-05-04 18:48 | 21.03054 | -72.00526 | 39000 ft | 500 kts | 130° |
| 2026-05-04 18:48 | 20.98965 | -71.94568 | 39003 ft | 500 kts | 130° |
| 2026-05-04 18:49 | 20.94842 | -71.88565 | 39000 ft | 499 kts | 130° |
| 2026-05-04 18:49 | 20.90725 | -71.82578 | 39001 ft | 499 kts | 130° |
| 2026-05-04 18:50 | 20.86603 | -71.76590 | 39000 ft | 499 kts | 130° |
| 2026-05-04 18:50 | 20.82502 | -71.70638 | 38910 ft | 502 kts | 130° |
| 2026-05-04 18:50 | 20.80418 | -71.67617 | 37897 ft | 508 kts | 130° |
| 2026-05-04 18:51 | 20.78312 | -71.64565 | 37138 ft | 509 kts | 130° |
| 2026-05-04 18:51 | 20.76233 | -71.61551 | 36818 ft | 498 kts | 130° |
| 2026-05-04 18:51 | 20.74192 | -71.58597 | 36559 ft | 488 kts | 130° |
| 2026-05-04 18:51 | 20.72180 | -71.55685 | 36029 ft | 486 kts | 130° |
| 2026-05-04 18:52 | 20.70181 | -71.52794 | 35623 ft | 480 kts | 130° |
| 2026-05-04 18:52 | 20.68214 | -71.49949 | 35245 ft | 474 kts | 130° |
| 2026-05-04 18:52 | 20.66262 | -71.47129 | 34787 ft | 470 kts | 130° |
| 2026-05-04 18:52 | 20.64987 | -71.45287 | 34554 ft | 465 kts | 130° |
| 2026-05-04 18:53 | 20.63068 | -71.42516 | 34143 ft | 461 kts | 130° |
| 2026-05-04 18:53 | 20.60533 | -71.38856 | 33559 ft | 454 kts | 130° |
| 2026-05-04 18:53 | 20.59289 | -71.37062 | 33200 ft | 453 kts | 129° |
| 2026-05-04 18:53 | 20.57424 | -71.34373 | 32706 ft | 449 kts | 129° |
| 2026-05-04 18:54 | 20.55567 | -71.31697 | 32213 ft | 446 kts | 129° |
| 2026-05-04 18:54 | 20.53131 | -71.28187 | 31622 ft | 441 kts | 129° |
| 2026-05-04 18:54 | 20.51927 | -71.26455 | 31521 ft | 433 kts | 129° |
| 2026-05-04 18:54 | 20.50131 | -71.23868 | 31147 ft | 434 kts | 129° |
| 2026-05-04 18:55 | 20.48341 | -71.21293 | 30676 ft | 432 kts | 129° |
| 2026-05-04 18:55 | 20.44778 | -71.16170 | 29730 ft | 428 kts | 129° |
| 2026-05-04 18:55 | 20.43011 | -71.13631 | 29207 ft | 426 kts | 129° |
| 2026-05-04 18:56 | 20.41027 | -71.11312 | 28668 ft | 419 kts | 144° |
| 2026-05-04 18:56 | 20.38663 | -71.09507 | 28182 ft | 415 kts | 147° |
| 2026-05-04 18:56 | 20.36328 | -71.07686 | 27695 ft | 414 kts | 147° |
| 2026-05-04 18:56 | 20.34005 | -71.05887 | 27216 ft | 412 kts | 147° |
| 2026-05-04 18:57 | 20.31686 | -71.04101 | 26745 ft | 409 kts | 147° |
| 2026-05-04 18:57 | 20.29409 | -71.02350 | 26274 ft | 407 kts | 147° |
| 2026-05-04 18:57 | 20.27121 | -71.00592 | 25827 ft | 404 kts | 147° |
| 2026-05-04 18:57 | 20.24846 | -70.98846 | 25380 ft | 402 kts | 146° |
| 2026-05-04 18:58 | 20.22582 | -70.97108 | 24935 ft | 400 kts | 146° |
| 2026-05-04 18:58 | 20.20335 | -70.95384 | 24505 ft | 397 kts | 146° |
| 2026-05-04 18:58 | 20.18100 | -70.93671 | 24087 ft | 395 kts | 146° |
| 2026-05-04 18:58 | 20.15873 | -70.91963 | 23662 ft | 392 kts | 146° |
| 2026-05-04 18:59 | 20.13658 | -70.90266 | 23191 ft | 390 kts | 146° |
| 2026-05-04 18:59 | 20.11467 | -70.88587 | 22690 ft | 388 kts | 146° |
| 2026-05-04 18:59 | 20.09279 | -70.86912 | 22201 ft | 386 kts | 146° |
| 2026-05-04 18:59 | 20.08194 | -70.86081 | 21962 ft | 385 kts | 146° |
| 2026-05-04 19:00 | 20.08125 | -70.86028 | 21945 ft | 385 kts | 146° |
| 2026-05-04 19:00 | 20.05924 | -70.84344 | 21541 ft | 381 kts | 147° |
| 2026-05-04 19:00 | 20.03821 | -70.82735 | 21200 ft | 375 kts | 147° |
| 2026-05-04 19:00 | 20.01712 | -70.81122 | 20859 ft | 370 kts | 147° |
| 2026-05-04 19:01 | 19.99637 | -70.79534 | 20518 ft | 366 kts | 147° |
| 2026-05-04 19:01 | 19.97570 | -70.77955 | 20176 ft | 362 kts | 147° |
| 2026-05-04 19:01 | 19.95535 | -70.76399 | 19840 ft | 359 kts | 147° |
| 2026-05-04 19:01 | 19.93508 | -70.74851 | 19508 ft | 357 kts | 147° |
| 2026-05-04 19:02 | 19.91500 | -70.73318 | 19177 ft | 355 kts | 147° |
| 2026-05-04 19:02 | 19.89491 | -70.71784 | 18868 ft | 354 kts | 147° |
| 2026-05-04 19:02 | 19.87529 | -70.70287 | 18568 ft | 352 kts | 148° |
| 2026-05-04 19:02 | 19.85544 | -70.68772 | 18267 ft | 351 kts | 148° |
| 2026-05-04 19:03 | 19.83567 | -70.67263 | 17878 ft | 349 kts | 147° |
| 2026-05-04 19:03 | 19.81594 | -70.65760 | 17536 ft | 348 kts | 147° |
| 2026-05-04 19:03 | 19.79636 | -70.64267 | 17200 ft | 346 kts | 147° |
| 2026-05-04 19:03 | 19.77687 | -70.62781 | 16854 ft | 344 kts | 147° |
| 2026-05-04 19:04 | 19.75745 | -70.61302 | 16524 ft | 341 kts | 147° |
| 2026-05-04 19:04 | 19.73820 | -70.59837 | 16197 ft | 340 kts | 147° |
| 2026-05-04 19:04 | 19.71905 | -70.58379 | 15869 ft | 337 kts | 147° |
| 2026-05-04 19:04 | 19.70002 | -70.56931 | 15566 ft | 334 kts | 147° |
| 2026-05-04 19:05 | 19.68124 | -70.55502 | 15239 ft | 331 kts | 147° |
| 2026-05-04 19:05 | 19.66258 | -70.54083 | 14939 ft | 329 kts | 148° |
| 2026-05-04 19:05 | 19.64429 | -70.52693 | 14648 ft | 326 kts | 147° |
| 2026-05-04 19:05 | 19.62598 | -70.51299 | 14350 ft | 323 kts | 148° |
| 2026-05-04 19:06 | 19.60779 | -70.49917 | 14058 ft | 319 kts | 147° |
| 2026-05-04 19:06 | 19.58974 | -70.48547 | 13771 ft | 316 kts | 147° |
| 2026-05-04 19:06 | 19.57189 | -70.47190 | 13445 ft | 314 kts | 147° |
| 2026-05-04 19:06 | 19.55424 | -70.45850 | 13169 ft | 311 kts | 147° |
| 2026-05-04 19:07 | 19.53669 | -70.44518 | 12846 ft | 310 kts | 147° |
| 2026-05-04 19:07 | 19.51938 | -70.43204 | 12529 ft | 309 kts | 147° |
| 2026-05-04 19:07 | 19.50196 | -70.41883 | 12229 ft | 306 kts | 147° |
| 2026-05-04 19:07 | 19.48470 | -70.40574 | 11912 ft | 304 kts | 147° |
| 2026-05-04 19:08 | 19.46756 | -70.39276 | 11605 ft | 301 kts | 146° |
| 2026-05-04 19:08 | 19.45054 | -70.37985 | 11317 ft | 299 kts | 146° |
| 2026-05-04 19:08 | 19.43367 | -70.36706 | 11008 ft | 297 kts | 146° |
| 2026-05-04 19:08 | 19.41694 | -70.35437 | 10721 ft | 295 kts | 146° |
| 2026-05-04 19:09 | 19.41670 | -70.35419 | 10716 ft | 295 kts | 146° |
| 2026-05-04 19:10 | 19.40988 | -70.34903 | 10588 ft | 294 kts | 146° |
| 2026-05-04 19:10 | 19.39327 | -70.33645 | 10321 ft | 293 kts | 146° |
| 2026-05-04 19:10 | 19.37669 | -70.32389 | 10125 ft | 290 kts | 146° |
| 2026-05-04 19:10 | 19.36028 | -70.31147 | 9925 ft | 289 kts | 146° |
| 2026-05-04 19:11 | 19.34394 | -70.29910 | 9730 ft | 285 kts | 146° |
| 2026-05-04 19:11 | 19.32803 | -70.28706 | 9520 ft | 279 kts | 146° |
| 2026-05-04 19:11 | 19.31225 | -70.27512 | 9361 ft | 277 kts | 145° |
| 2026-05-04 19:11 | 19.29681 | -70.26345 | 9149 ft | 276 kts | 146° |
| 2026-05-04 19:12 | 19.28107 | -70.25146 | 8963 ft | 275 kts | 146° |
| 2026-05-04 19:12 | 19.25046 | -70.22802 | 8586 ft | 271 kts | 146° |
| 2026-05-04 19:12 | 19.23518 | -70.21633 | 8390 ft | 270 kts | 146° |
| 2026-05-04 19:13 | 19.22001 | -70.20475 | 8198 ft | 268 kts | 146° |
| 2026-05-04 19:13 | 19.20486 | -70.19317 | 8039 ft | 268 kts | 146° |
| 2026-05-04 19:13 | 19.18974 | -70.18162 | 7839 ft | 266 kts | 146° |
| 2026-05-04 19:13 | 19.17478 | -70.17020 | 7664 ft | 265 kts | 146° |
| 2026-05-04 19:14 | 19.15985 | -70.15883 | 7477 ft | 264 kts | 146° |
| 2026-05-04 19:14 | 19.14510 | -70.14755 | 7318 ft | 263 kts | 146° |
| 2026-05-04 19:14 | 19.13032 | -70.13627 | 7146 ft | 262 kts | 146° |
| 2026-05-04 19:14 | 19.11564 | -70.12505 | 6990 ft | 259 kts | 146° |
| 2026-05-04 19:15 | 19.10101 | -70.11389 | 6951 ft | 259 kts | 146° |
| 2026-05-04 19:15 | 19.08636 | -70.10272 | 6958 ft | 258 kts | 146° |
| 2026-05-04 19:15 | 19.07185 | -70.09167 | 6950 ft | 258 kts | 146° |
| 2026-05-04 19:15 | 19.05728 | -70.08056 | 6947 ft | 258 kts | 146° |
| 2026-05-04 19:16 | 19.04274 | -70.06947 | 6951 ft | 258 kts | 145° |
| 2026-05-04 19:16 | 19.02816 | -70.05836 | 6954 ft | 258 kts | 146° |
| 2026-05-04 19:16 | 19.01378 | -70.04741 | 6967 ft | 258 kts | 146° |
| 2026-05-04 19:16 | 18.99915 | -70.03627 | 6942 ft | 257 kts | 146° |
| 2026-05-04 19:17 | 18.98463 | -70.02522 | 6964 ft | 258 kts | 145° |
| 2026-05-04 19:17 | 18.97000 | -70.01410 | 6930 ft | 258 kts | 145° |
| 2026-05-04 19:17 | 18.95545 | -70.00301 | 6951 ft | 257 kts | 145° |
| 2026-05-04 19:17 | 18.94095 | -69.99198 | 6962 ft | 257 kts | 146° |
| 2026-05-04 19:18 | 18.92662 | -69.98108 | 6956 ft | 257 kts | 145° |
| 2026-05-04 19:18 | 18.91207 | -69.97002 | 6747 ft | 257 kts | 145° |
| 2026-05-04 19:18 | 18.89766 | -69.95905 | 6528 ft | 254 kts | 145° |
| 2026-05-04 19:18 | 18.88564 | -69.94989 | 6375 ft | 254 kts | 145° |
| 2026-05-04 19:19 | 18.87167 | -69.93857 | 6140 ft | 252 kts | 135° |
| 2026-05-04 19:19 | 18.86301 | -69.92287 | 5996 ft | 253 kts | 108° |
| 2026-05-04 19:19 | 18.86036 | -69.90412 | 5825 ft | 257 kts | 98° |
| 2026-05-04 19:19 | 18.85887 | -69.88556 | 5630 ft | 258 kts | 98° |
| 2026-05-04 19:20 | 18.85682 | -69.86681 | 5351 ft | 254 kts | 109° |
| 2026-05-04 19:20 | 18.84742 | -69.85195 | 5130 ft | 243 kts | 144° |
| 2026-05-04 19:20 | 18.83226 | -69.84510 | 4929 ft | 236 kts | 166° |
| 2026-05-04 19:20 | 18.81669 | -69.84002 | 4743 ft | 231 kts | 154° |
| 2026-05-04 19:21 | 18.80245 | -69.83265 | 4500 ft | 226 kts | 154° |
| 2026-05-04 19:21 | 18.78844 | -69.82551 | 4284 ft | 222 kts | 154° |
| 2026-05-04 19:21 | 18.77457 | -69.81857 | 4084 ft | 219 kts | 154° |
| 2026-05-04 19:21 | 18.76062 | -69.81163 | 3889 ft | 224 kts | 154° |
| 2026-05-04 19:22 | 18.74659 | -69.80474 | 3657 ft | 225 kts | 155° |
| 2026-05-04 19:22 | 18.73241 | -69.79780 | 3399 ft | 222 kts | 155° |
| 2026-05-04 19:22 | 18.71851 | -69.79103 | 3225 ft | 216 kts | 155° |
| 2026-05-04 19:22 | 18.70506 | -69.78448 | 3046 ft | 211 kts | 155° |
| 2026-05-04 19:23 | 18.69189 | -69.77804 | 3037 ft | 205 kts | 155° |
| 2026-05-04 19:23 | 18.67875 | -69.77171 | 2972 ft | 210 kts | 155° |
| 2026-05-04 19:23 | 18.66556 | -69.76528 | 2997 ft | 208 kts | 154° |
| 2026-05-04 19:23 | 18.65263 | -69.75901 | 2919 ft | 206 kts | 156° |
| 2026-05-04 19:24 | 18.63947 | -69.75266 | 2992 ft | 211 kts | 155° |
| 2026-05-04 19:24 | 18.62616 | -69.74614 | 2930 ft | 208 kts | 154° |
| 2026-05-04 19:24 | 18.61313 | -69.73981 | 2916 ft | 199 kts | 155° |
| 2026-05-04 19:24 | 18.60127 | -69.73415 | 3067 ft | 180 kts | 158° |
| 2026-05-04 19:25 | 18.58962 | -69.72977 | 3036 ft | 173 kts | 161° |
| 2026-05-04 19:25 | 18.57864 | -69.72580 | 2865 ft | 159 kts | 160° |
| 2026-05-04 19:25 | 18.56889 | -69.72180 | 2702 ft | 145 kts | 148° |
| 2026-05-04 19:25 | 18.56014 | -69.71738 | 2512 ft | 139 kts | 162° |
| 2026-05-04 19:26 | 18.55080 | -69.71435 | 2382 ft | 141 kts | 164° |
| 2026-05-04 19:26 | 18.54137 | -69.71130 | 2126 ft | 142 kts | 162° |
| 2026-05-04 19:26 | 18.53204 | -69.70803 | 1844 ft | 140 kts | 163° |
| 2026-05-04 19:26 | 18.52301 | -69.70509 | 1675 ft | 134 kts | 162° |
| 2026-05-04 19:27 | 18.51390 | -69.70206 | 1599 ft | 138 kts | 165° |
| 2026-05-04 19:27 | 18.50471 | -69.69906 | 1304 ft | 138 kts | 163° |
| 2026-05-04 19:27 | 18.49567 | -69.69588 | 1124 ft | 140 kts | 163° |
| 2026-05-04 19:27 | 18.48652 | -69.69227 | 1023 ft | 142 kts | 159° |
| 2026-05-04 19:28 | 18.47699 | -69.68855 | 878 ft | 149 kts | 162° |
| 2026-05-04 19:28 | 18.46751 | -69.68493 | 659 ft | 142 kts | 161° |
| 2026-05-04 19:28 | 18.45821 | -69.68175 | 421 ft | 135 kts | 160° |
| 2026-05-04 19:28 | 18.44948 | -69.67820 | 269 ft | 138 kts | 161° |
| 2026-05-04 19:29 | 18.44041 | -69.67487 | 108 ft | 136 kts | 162° |
| 2026-05-04 19:29 | 18.43213 | -69.67180 | 69 ft | 114 kts | 162° |
| 2026-05-04 19:29 | 18.42589 | -69.66951 | 70 ft | 60 kts | 161° |
| 2026-05-04 19:29 | 18.42374 | -69.66867 | 66 ft | 20 kts | 144° |
| 2026-05-04 19:30 | 18.42305 | -69.66803 | 70 ft | 13 kts | 163° |
| 2026-05-04 19:30 | 18.42266 | -69.66814 | 64 ft | 0 kts | 204° |
| 2026-05-04 19:30 | 18.42263 | -69.66818 | 67 ft | 1 kts | 236° |
| 2026-05-04 19:31 | 18.42277 | -69.66844 | 65 ft | 10 kts | 324° |
| 2026-05-04 19:31 | 18.42393 | -69.66881 | 59 ft | 20 kts | 341° |
| 2026-05-04 19:31 | 18.42522 | -69.66927 | 70 ft | 16 kts | 341° |
| 2026-05-04 19:31 | 18.42633 | -69.66967 | 71 ft | 18 kts | 341° |
| 2026-05-04 19:32 | 18.42768 | -69.67017 | 64 ft | 22 kts | 341° |
| 2026-05-04 19:32 | 18.42884 | -69.67059 | 68 ft | 21 kts | 341° |
| 2026-05-04 19:32 | 18.42950 | -69.67144 | 70 ft | 16 kts | 276° |
| 2026-05-04 19:32 | 18.42958 | -69.67227 | 62 ft | 10 kts | 275° |
| 2026-05-04 19:33 | 18.42959 | -69.67237 | 62 ft | 0 kts | 275° |
| 2026-05-04 19:33 | 18.42960 | -69.67240 | 62 ft | 2 kts | 275° |
| 2026-05-04 19:34 | 18.42962 | -69.67267 | 65 ft | 6 kts | 274° |
| 2026-05-04 19:34 | 18.42966 | -69.67316 | 65 ft | 8 kts | 277° |
| 2026-05-04 19:34 | 18.42980 | -69.67371 | 63 ft | 7 kts | 301° |
| 2026-05-04 19:34 | 18.43012 | -69.67409 | 66 ft | 7 kts | 320° |
| 2026-05-04 19:35 | 18.43044 | -69.67431 | 60 ft | 5 kts | 333° |
| 2026-05-04 19:35 | 18.43068 | -69.67442 | 64 ft | 3 kts | 338° |
| 2026-05-04 19:35 | 18.43084 | -69.67448 | 66 ft | 2 kts | 341° |
| 2026-05-04 19:35 | 18.43108 | -69.67457 | 63 ft | 6 kts | 341° |
| 2026-05-04 19:36 | 18.43160 | -69.67476 | 66 ft | 10 kts | 340° |
| 2026-05-04 19:36 | 18.43240 | -69.67503 | 67 ft | 14 kts | 342° |
| 2026-05-04 19:36 | 18.43323 | -69.67552 | 63 ft | 11 kts | 292° |
| 2026-05-04 19:36 | 18.43300 | -69.67609 | 65 ft | 8 kts | 220° |
| 2026-05-04 19:37 | 18.43269 | -69.67634 | 70 ft | 4 kts | 217° |
| 2026-05-04 19:37 | 18.43253 | -69.67647 | 70 ft | 0 kts | 217° |
| 2026-05-04 19:37 | 18.43248 | -69.67651 | 66 ft | 0 kts | 216° |